Impacts METAR Board INFO
IDs:

KLGA - New York/La Guardia, NY, US

Updated at: 1929 UTC 19 Jan 2018
Potential Impact None Slight Moderate High
Time19/07Z 19/08Z 19/09Z 19/10Z 19/11Z 19/12Z 19/13Z 19/14Z 19/15Z 19/16Z 19/17Z 19/18Z 19/19Z
VIS10 10 10 10 10 10 10 10 10 10 10 10 10
CIG-- -- -- -- 250 250 250 210 220 210 200 200 170
CoverCLRCLRCLRCLRBKNBKNBKNBKNOVCOVCBKNBKNBKN
FltCatVFRVFRVFRVFRVFRVFRVFRVFRVFRVFRVFRVFRVFR
WX--------------------------
WDir290300270270260270260270270250250280270
WSpd7 7 7 9 11 13 11 13 12 11 10 9 8
WGst-- -- -- -- 18 20 -- 20 -- -- -- -- --
Raw hourly METARs
KLGA 190651Z 29007KT 10SM CLR M03/M11 A3004 RMK AO2 SLP173 T10331111
KLGA 190751Z 30007KT 10SM CLR M03/M11 A3004 RMK AO2 SLP173 T10331106
KLGA 190851Z 27007KT 10SM CLR M03/M11 A3005 RMK AO2 SLP177 T10281111 53003
KLGA 190951Z 27009KT 10SM CLR M02/M11 A3006 RMK AO2 SLP177 T10221111
KLGA 191051Z 26011G18KT 10SM BKN250 M01/M11 A3006 RMK AO2 SLP178 T10111111
KLGA 191151Z 27013G20KT 10SM BKN250 00/M11 A3005 RMK AO2 SLP177 T00001111 10000 21033 50000
KLGA 191251Z 26011KT 10SM FEW180 BKN250 00/M11 A3006 RMK AO2 SLP178 T00001111
KLGA 191351Z 27013G20KT 10SM BKN210 00/M11 A3008 RMK AO2 SLP184 T00001111
KLGA 191451Z 27012KT 10SM OVC220 00/M11 A3008 RMK AO2 SLP186 T00001111 53009
KLGA 191551Z 25011KT 10SM BKN210 OVC250 01/M11 A3007 RMK AO2 SLP182 T00061111
KLGA 191651Z 25010KT 10SM BKN200 01/M10 A3004 RMK AO2 SLP173 T00111100
KLGA 191751Z 28009KT 10SM BKN200 02/M10 A3001 RMK AO2 SLP160 T00221100 10022 20000 58026
KLGA 191851Z 27008KT 10SM BKN170 02/M10 A2999 RMK AO2 SLP154 T00221100